sensor_id;sensor_type;location;lat;lon;timestamp;noise_LAeq;noise_LA_min;noise_LA_max;noise_LA01;noise_LA95
43168;Laerm;28773;48.804;9.024;2023-03-14T00:01:45;58.16;49.89;65.83;;
43168;Laerm;28773;48.804;9.024;2023-03-14T00:04:10;58.19;49.13;65.57;;
43168;Laerm;28773;48.804;9.024;2023-03-14T00:06:35;58.34;49.01;65.66;;
43168;Laerm;28773;48.804;9.024;2023-03-14T00:09:00;58.46;49.07;66.41;;
43168;Laerm;28773;48.804;9.024;2023-03-14T00:11:25;58.58;49.49;66.01;;
43168;Laerm;28773;48.804;9.024;2023-03-14T00:13:51;58.69;49.45;66.45;;
43168;Laerm;28773;48.804;9.024;2023-03-14T00:16:16;58.77;48.92;67.29;;
43168;Laerm;28773;48.804;9.024;2023-03-14T00:18:42;58.84;49.25;67.35;;
43168;Laerm;28773;48.804;9.024;2023-03-14T00:21:08;58.95;49.33;67.41;;
43168;Laerm;28773;48.804;9.024;2023-03-14T00:23:34;58.99;49.30;67.56;;
43168;Laerm;28773;48.804;9.024;2023-03-14T00:26:01;59.00;49.58;66.71;;
43168;Laerm;28773;48.804;9.024;2023-03-14T00:28:26;59.03;49.26;67.48;;
43168;Laerm;28773;48.804;9.024;2023-03-14T00:30:51;59.17;49.47;80.24;;
43168;Laerm;28773;48.804;9.024;2023-03-14T00:33:17;59.04;48.77;67.62;;
43168;Laerm;28773;48.804;9.024;2023-03-14T00:35:42;59.09;49.26;67.60;;
43168;Laerm;28773;48.804;9.024;2023-03-14T00:38:07;59.10;49.67;67.65;;
43168;Laerm;28773;48.804;9.024;2023-03-14T00:40:32;59.12;49.52;67.68;;
43168;Laerm;28773;48.804;9.024;2023-03-14T00:42:57;59.15;49.34;67.79;;
43168;Laerm;28773;48.804;9.024;2023-03-14T00:45:22;59.13;48.95;67.75;;
43168;Laerm;28773;48.804;9.024;2023-03-14T00:47:48;59.15;49.53;67.31;;
43168;Laerm;28773;48.804;9.024;2023-03-14T00:50:13;59.13;48.68;67.50;;
43168;Laerm;28773;48.804;9.024;2023-03-14T00:52:38;59.12;49.98;67.17;;
43168;Laerm;28773;48.804;9.024;2023-03-14T00:55:03;59.15;49.66;67.63;;
43168;Laerm;28773;48.804;9.024;2023-03-14T00:57:29;59.17;48.40;67.80;;
43168;Laerm;28773;48.804;9.024;2023-03-14T00:59:54;59.15;49.89;67.78;;
43168;Laerm;28773;48.804;9.024;2023-03-14T01:02:19;59.15;48.95;67.74;;
43168;Laerm;28773;48.804;9.024;2023-03-14T01:04:46;59.17;48.92;67.75;;
43168;Laerm;28773;48.804;9.024;2023-03-14T01:07:12;59.16;49.19;67.69;;
43168;Laerm;28773;48.804;9.024;2023-03-14T01:09:37;59.20;48.28;67.77;;
43168;Laerm;28773;48.804;9.024;2023-03-14T01:12:02;59.24;49.33;67.78;;
43168;Laerm;28773;48.804;9.024;2023-03-14T01:14:27;59.30;48.41;67.73;;
43168;Laerm;28773;48.804;9.024;2023-03-14T01:16:52;59.30;48.71;67.76;;
43168;Laerm;28773;48.804;9.024;2023-03-14T01:19:18;59.35;47.35;67.82;;
43168;Laerm;28773;48.804;9.024;2023-03-14T01:21:43;59.31;49.32;67.78;;
43168;Laerm;28773;48.804;9.024;2023-03-14T01:24:10;59.34;47.75;67.89;;
43168;Laerm;28773;48.804;9.024;2023-03-14T01:26:35;59.36;49.60;67.93;;
43168;Laerm;28773;48.804;9.024;2023-03-14T01:29:01;59.37;49.16;67.90;;
43168;Laerm;28773;48.804;9.024;2023-03-14T01:31:27;59.38;49.63;68.04;;
43168;Laerm;28773;48.804;9.024;2023-03-14T01:33:52;59.41;49.08;67.86;;
43168;Laerm;28773;48.804;9.024;2023-03-14T01:36:17;59.45;48.55;67.86;;
43168;Laerm;28773;48.804;9.024;2023-03-14T01:38:43;59.47;48.36;67.77;;
43168;Laerm;28773;48.804;9.024;2023-03-14T01:41:09;59.45;48.60;67.76;;
43168;Laerm;28773;48.804;9.024;2023-03-14T01:43:36;59.44;48.58;67.77;;
43168;Laerm;28773;48.804;9.024;2023-03-14T01:51:01;59.40;48.97;67.82;;
43168;Laerm;28773;48.804;9.024;2023-03-14T01:53:27;59.36;48.88;67.81;;
43168;Laerm;28773;48.804;9.024;2023-03-14T01:55:52;59.33;49.45;67.73;;
43168;Laerm;28773;48.804;9.024;2023-03-14T01:58:21;59.33;48.63;67.79;;
43168;Laerm;28773;48.804;9.024;2023-03-14T02:00:47;59.30;49.03;67.73;;
43168;Laerm;28773;48.804;9.024;2023-03-14T02:03:14;59.30;48.53;67.80;;
43168;Laerm;28773;48.804;9.024;2023-03-14T02:05:41;59.25;47.61;67.70;;
43168;Laerm;28773;48.804;9.024;2023-03-14T02:08:08;59.28;49.25;67.78;;
43168;Laerm;28773;48.804;9.024;2023-03-14T02:10:45;59.23;48.17;67.68;;
43168;Laerm;28773;48.804;9.024;2023-03-14T02:13:11;59.20;49.01;67.61;;
43168;Laerm;28773;48.804;9.024;2023-03-14T02:15:37;59.16;49.45;67.61;;
43168;Laerm;28773;48.804;9.024;2023-03-14T02:18:03;59.09;49.28;67.57;;
43168;Laerm;28773;48.804;9.024;2023-03-14T02:23:00;58.99;48.27;67.52;;
43168;Laerm;28773;48.804;9.024;2023-03-14T02:25:31;58.93;48.42;67.37;;
43168;Laerm;28773;48.804;9.024;2023-03-14T02:28:00;58.90;48.75;67.37;;
43168;Laerm;28773;48.804;9.024;2023-03-14T02:30:27;58.85;48.74;67.40;;
43168;Laerm;28773;48.804;9.024;2023-03-14T02:32:54;58.81;48.50;67.36;;
43168;Laerm;28773;48.804;9.024;2023-03-14T02:35:22;58.77;49.19;67.26;;
43168;Laerm;28773;48.804;9.024;2023-03-14T02:37:48;58.73;48.98;67.24;;
43168;Laerm;28773;48.804;9.024;2023-03-14T02:40:15;58.72;49.22;67.25;;
43168;Laerm;28773;48.804;9.024;2023-03-14T02:42:41;58.68;48.70;67.24;;
43168;Laerm;28773;48.804;9.024;2023-03-14T02:47:31;58.62;49.08;67.16;;
43168;Laerm;28773;48.804;9.024;2023-03-14T02:50:05;58.58;49.25;66.90;;
43168;Laerm;28773;48.804;9.024;2023-03-14T02:52:31;58.57;48.50;67.10;;
43168;Laerm;28773;48.804;9.024;2023-03-14T02:54:56;58.55;48.63;67.09;;
43168;Laerm;28773;48.804;9.024;2023-03-14T02:57:22;58.49;48.97;67.01;;
43168;Laerm;28773;48.804;9.024;2023-03-14T02:59:47;58.45;48.78;66.93;;
43168;Laerm;28773;48.804;9.024;2023-03-14T03:02:12;58.38;47.99;66.82;;
43168;Laerm;28773;48.804;9.024;2023-03-14T03:04:37;58.36;48.44;66.89;;
43168;Laerm;28773;48.804;9.024;2023-03-14T03:07:02;58.31;48.93;66.86;;
43168;Laerm;28773;48.804;9.024;2023-03-14T03:09:27;58.28;48.18;66.74;;
43168;Laerm;28773;48.804;9.024;2023-03-14T03:11:53;58.23;48.26;66.80;;
43168;Laerm;28773;48.804;9.024;2023-03-14T03:14:18;58.18;48.19;66.71;;
43168;Laerm;28773;48.804;9.024;2023-03-14T03:16:43;58.15;48.00;66.60;;
43168;Laerm;28773;48.804;9.024;2023-03-14T03:19:08;58.06;47.62;66.61;;
43168;Laerm;28773;48.804;9.024;2023-03-14T03:21:33;58.03;48.17;66.56;;
43168;Laerm;28773;48.804;9.024;2023-03-14T03:23:59;57.98;48.08;66.61;;
43168;Laerm;28773;48.804;9.024;2023-03-14T03:26:25;57.94;48.22;66.45;;
43168;Laerm;28773;48.804;9.024;2023-03-14T03:28:50;57.90;47.72;66.42;;
43168;Laerm;28773;48.804;9.024;2023-03-14T03:31:16;57.85;47.83;66.34;;
43168;Laerm;28773;48.804;9.024;2023-03-14T03:33:41;57.78;48.41;66.21;;
43168;Laerm;28773;48.804;9.024;2023-03-14T03:36:07;57.73;48.32;66.32;;
43168;Laerm;28773;48.804;9.024;2023-03-14T03:38:32;57.70;47.88;66.17;;
43168;Laerm;28773;48.804;9.024;2023-03-14T03:40:57;57.63;48.11;65.66;;
43168;Laerm;28773;48.804;9.024;2023-03-14T03:43:23;57.60;47.20;66.02;;
43168;Laerm;28773;48.804;9.024;2023-03-14T03:45:48;57.53;47.33;66.03;;
43168;Laerm;28773;48.804;9.024;2023-03-14T03:48:13;57.47;47.41;65.86;;
43168;Laerm;28773;48.804;9.024;2023-03-14T03:50:43;57.39;47.54;65.88;;
43168;Laerm;28773;48.804;9.024;2023-03-14T03:53:08;57.32;47.65;65.83;;
43168;Laerm;28773;48.804;9.024;2023-03-14T03:55:33;57.27;47.42;65.62;;
43168;Laerm;28773;48.804;9.024;2023-03-14T03:57:59;57.23;47.48;65.65;;
43168;Laerm;28773;48.804;9.024;2023-03-14T04:00:24;57.16;47.05;65.52;;
43168;Laerm;28773;48.804;9.024;2023-03-14T04:02:49;57.10;47.46;65.52;;
43168;Laerm;28773;48.804;9.024;2023-03-14T04:05:14;57.06;46.79;65.15;;
43168;Laerm;28773;48.804;9.024;2023-03-14T04:07:39;56.99;47.68;65.05;;
43168;Laerm;28773;48.804;9.024;2023-03-14T04:10:05;56.92;47.22;65.02;;
43168;Laerm;28773;48.804;9.024;2023-03-14T04:12:30;56.89;47.16;65.15;;
43168;Laerm;28773;48.804;9.024;2023-03-14T04:14:55;56.80;47.32;64.68;;
43168;Laerm;28773;48.804;9.024;2023-03-14T04:17:20;56.77;47.19;65.09;;
43168;Laerm;28773;48.804;9.024;2023-03-14T04:19:45;56.69;46.96;64.85;;
43168;Laerm;28773;48.804;9.024;2023-03-14T04:22:11;56.62;46.30;64.97;;
43168;Laerm;28773;48.804;9.024;2023-03-14T04:24:36;56.52;46.27;64.90;;
43168;Laerm;28773;48.804;9.024;2023-03-14T04:27:01;56.47;46.41;64.80;;
43168;Laerm;28773;48.804;9.024;2023-03-14T04:29:27;56.42;47.10;64.12;;
43168;Laerm;28773;48.804;9.024;2023-03-14T04:31:52;56.39;46.77;64.46;;
43168;Laerm;28773;48.804;9.024;2023-03-14T04:34:17;56.32;46.91;64.48;;
43168;Laerm;28773;48.804;9.024;2023-03-14T04:36:42;56.28;46.94;64.17;;
43168;Laerm;28773;48.804;9.024;2023-03-14T04:39:07;56.19;46.87;64.25;;
43168;Laerm;28773;48.804;9.024;2023-03-14T04:41:32;56.08;46.50;64.22;;
43168;Laerm;28773;48.804;9.024;2023-03-14T04:43:58;55.99;45.94;63.49;;
43168;Laerm;28773;48.804;9.024;2023-03-14T04:46:23;56.00;46.09;64.01;;
43168;Laerm;28773;48.804;9.024;2023-03-14T04:48:48;55.98;45.68;63.80;;
43168;Laerm;28773;48.804;9.024;2023-03-14T04:51:13;55.90;46.27;63.68;;
43168;Laerm;28773;48.804;9.024;2023-03-14T04:53:38;55.90;46.61;63.30;;
43168;Laerm;28773;48.804;9.024;2023-03-14T04:56:04;55.84;46.18;63.36;;
43168;Laerm;28773;48.804;9.024;2023-03-14T04:58:29;55.85;45.10;64.12;;
43168;Laerm;28773;48.804;9.024;2023-03-14T05:00:54;55.87;46.09;63.20;;
43168;Laerm;28773;48.804;9.024;2023-03-14T05:03:19;55.84;45.78;63.82;;
43168;Laerm;28773;48.804;9.024;2023-03-14T05:05:45;55.79;45.90;63.76;;
43168;Laerm;28773;48.804;9.024;2023-03-14T05:08:10;55.80;46.29;64.13;;
43168;Laerm;28773;48.804;9.024;2023-03-14T05:10:36;55.79;45.53;63.52;;
43168;Laerm;28773;48.804;9.024;2023-03-14T05:13:01;55.78;46.03;63.72;;
43168;Laerm;28773;48.804;9.024;2023-03-14T05:15:26;55.76;46.11;63.85;;
43168;Laerm;28773;48.804;9.024;2023-03-14T05:17:51;55.76;46.60;63.68;;
43168;Laerm;28773;48.804;9.024;2023-03-14T05:20:17;55.83;46.12;64.09;;
43168;Laerm;28773;48.804;9.024;2023-03-14T05:22:43;55.85;45.27;63.88;;
43168;Laerm;28773;48.804;9.024;2023-03-14T05:25:08;55.86;46.20;64.22;;
43168;Laerm;28773;48.804;9.024;2023-03-14T05:27:34;55.86;45.64;63.78;;
43168;Laerm;28773;48.804;9.024;2023-03-14T05:29:59;55.78;45.86;63.99;;
43168;Laerm;28773;48.804;9.024;2023-03-14T05:32:24;55.74;46.23;63.69;;
43168;Laerm;28773;48.804;9.024;2023-03-14T05:34:49;55.73;45.13;64.01;;
43168;Laerm;28773;48.804;9.024;2023-03-14T05:37:15;55.68;45.89;63.93;;
43168;Laerm;28773;48.804;9.024;2023-03-14T05:39:40;55.64;46.27;63.95;;
43168;Laerm;28773;48.804;9.024;2023-03-14T05:42:05;55.60;45.85;63.81;;
43168;Laerm;28773;48.804;9.024;2023-03-14T05:44:30;55.54;45.56;62.91;;
43168;Laerm;28773;48.804;9.024;2023-03-14T05:46:55;55.52;45.61;63.79;;
43168;Laerm;28773;48.804;9.024;2023-03-14T05:49:20;55.41;45.70;62.77;;
43168;Laerm;28773;48.804;9.024;2023-03-14T05:51:46;55.43;45.45;63.79;;
43168;Laerm;28773;48.804;9.024;2023-03-14T05:54:11;55.45;45.86;63.67;;
43168;Laerm;28773;48.804;9.024;2023-03-14T05:56:36;55.46;45.90;63.74;;
43168;Laerm;28773;48.804;9.024;2023-03-14T05:59:01;55.38;45.84;63.51;;
43168;Laerm;28773;48.804;9.024;2023-03-14T06:01:28;55.30;45.81;63.64;;
43168;Laerm;28773;48.804;9.024;2023-03-14T06:03:53;55.24;46.15;63.53;;
43168;Laerm;28773;48.804;9.024;2023-03-14T06:06:18;55.28;45.54;63.46;;
43168;Laerm;28773;48.804;9.024;2023-03-14T06:08:43;55.22;45.60;63.61;;
43168;Laerm;28773;48.804;9.024;2023-03-14T06:11:09;55.19;45.66;63.13;;
43168;Laerm;28773;48.804;9.024;2023-03-14T06:13:34;55.06;46.12;63.28;;
43168;Laerm;28773;48.804;9.024;2023-03-14T06:15:59;54.98;45.58;63.22;;
43168;Laerm;28773;48.804;9.024;2023-03-14T06:18:25;54.83;45.62;63.25;;
43168;Laerm;28773;48.804;9.024;2023-03-14T06:20:53;54.74;44.94;63.20;;
43168;Laerm;28773;48.804;9.024;2023-03-14T06:23:18;54.65;45.44;62.98;;
43168;Laerm;28773;48.804;9.024;2023-03-14T06:25:43;54.54;45.07;62.53;;
43168;Laerm;28773;48.804;9.024;2023-03-14T06:28:08;54.45;45.17;62.81;;
43168;Laerm;28773;48.804;9.024;2023-03-14T06:30:33;54.40;45.14;62.42;;
43168;Laerm;28773;48.804;9.024;2023-03-14T06:32:58;54.43;45.24;62.71;;
43168;Laerm;28773;48.804;9.024;2023-03-14T06:35:24;54.38;45.11;62.64;;
43168;Laerm;28773;48.804;9.024;2023-03-14T06:37:49;54.38;45.66;62.64;;
43168;Laerm;28773;48.804;9.024;2023-03-14T06:40:14;54.33;45.00;62.66;;
43168;Laerm;28773;48.804;9.024;2023-03-14T06:42:43;54.36;44.56;62.63;;
43168;Laerm;28773;48.804;9.024;2023-03-14T06:45:08;54.32;44.55;62.85;;
43168;Laerm;28773;48.804;9.024;2023-03-14T06:47:33;54.33;44.79;62.63;;
43168;Laerm;28773;48.804;9.024;2023-03-14T06:49:59;54.33;45.28;62.75;;
43168;Laerm;28773;48.804;9.024;2023-03-14T06:52:24;54.34;44.98;62.58;;
43168;Laerm;28773;48.804;9.024;2023-03-14T06:54:49;54.31;44.88;62.76;;
43168;Laerm;28773;48.804;9.024;2023-03-14T06:57:14;54.41;44.82;62.78;;
43168;Laerm;28773;48.804;9.024;2023-03-14T06:59:39;54.58;45.56;62.84;;
43168;Laerm;28773;48.804;9.024;2023-03-14T07:02:05;54.45;45.45;62.78;;
43168;Laerm;28773;48.804;9.024;2023-03-14T07:04:30;54.49;45.44;62.72;;
43168;Laerm;28773;48.804;9.024;2023-03-14T07:06:55;54.53;45.37;62.87;;
43168;Laerm;28773;48.804;9.024;2023-03-14T07:09:20;54.47;44.63;62.84;;
43168;Laerm;28773;48.804;9.024;2023-03-14T07:11:45;54.46;45.35;62.76;;
43168;Laerm;28773;48.804;9.024;2023-03-14T07:14:10;54.41;44.98;62.62;;
43168;Laerm;28773;48.804;9.024;2023-03-14T07:16:35;54.37;45.22;62.52;;
43168;Laerm;28773;48.804;9.024;2023-03-14T07:19:01;54.14;45.05;62.54;;
43168;Laerm;28773;48.804;9.024;2023-03-14T07:21:26;53.85;44.55;62.32;;
43168;Laerm;28773;48.804;9.024;2023-03-14T07:23:52;53.68;45.05;62.13;;
43168;Laerm;28773;48.804;9.024;2023-03-14T07:26:17;53.70;44.89;62.08;;
43168;Laerm;28773;48.804;9.024;2023-03-14T07:28:42;53.51;44.16;62.22;;
43168;Laerm;28773;48.804;9.024;2023-03-14T07:31:08;52.88;43.87;61.62;;
43168;Laerm;28773;48.804;9.024;2023-03-14T07:33:33;51.73;42.32;59.59;;
43168;Laerm;28773;48.804;9.024;2023-03-14T07:35:58;50.25;41.04;58.33;;
43168;Laerm;28773;48.804;9.024;2023-03-14T07:38:23;49.39;40.83;57.14;;
43168;Laerm;28773;48.804;9.024;2023-03-14T07:40:49;47.19;38.73;55.82;;
43168;Laerm;28773;48.804;9.024;2023-03-14T07:43:14;43.68;36.32;52.66;;
43168;Laerm;28773;48.804;9.024;2023-03-14T07:45:39;42.74;36.37;50.00;;
43168;Laerm;28773;48.804;9.024;2023-03-14T07:48:04;42.06;36.20;48.91;;
43168;Laerm;28773;48.804;9.024;2023-03-14T07:50:33;42.67;36.72;49.93;;
43168;Laerm;28773;48.804;9.024;2023-03-14T07:52:58;42.05;36.08;49.11;;
43168;Laerm;28773;48.804;9.024;2023-03-14T07:55:23;43.86;37.02;51.93;;
43168;Laerm;28773;48.804;9.024;2023-03-14T07:57:48;45.78;39.09;53.04;;
43168;Laerm;28773;48.804;9.024;2023-03-14T08:00:20;43.09;35.74;52.93;;
43168;Laerm;28773;48.804;9.024;2023-03-14T08:02:46;37.73;34.03;45.88;;
43168;Laerm;28773;48.804;9.024;2023-03-14T08:05:11;35.95;33.44;40.95;;
43168;Laerm;28773;48.804;9.024;2023-03-14T08:07:36;34.98;33.19;39.74;;
43168;Laerm;28773;48.804;9.024;2023-03-14T08:10:01;35.49;33.16;39.59;;
43168;Laerm;28773;48.804;9.024;2023-03-14T08:12:27;36.42;33.88;41.59;;
43168;Laerm;28773;48.804;9.024;2023-03-14T08:14:52;36.76;34.38;42.04;;
43168;Laerm;28773;48.804;9.024;2023-03-14T08:17:17;35.18;33.05;41.34;;
43168;Laerm;28773;48.804;9.024;2023-03-14T08:19:42;34.70;33.12;37.08;;
43168;Laerm;28773;48.804;9.024;2023-03-14T08:22:08;34.66;33.00;37.72;;
43168;Laerm;28773;48.804;9.024;2023-03-14T08:24:33;34.52;32.99;38.06;;
43168;Laerm;28773;48.804;9.024;2023-03-14T08:26:58;34.50;32.96;38.47;;
43168;Laerm;28773;48.804;9.024;2023-03-14T08:29:23;34.63;32.81;36.75;;
43168;Laerm;28773;48.804;9.024;2023-03-14T08:31:50;34.99;33.28;38.13;;
43168;Laerm;28773;48.804;9.024;2023-03-14T08:34:15;35.42;33.40;39.22;;
43168;Laerm;28773;48.804;9.024;2023-03-14T08:36:40;36.18;33.99;41.32;;
43168;Laerm;28773;48.804;9.024;2023-03-14T08:39:06;36.25;33.76;46.36;;
43168;Laerm;28773;48.804;9.024;2023-03-14T08:41:32;34.99;33.30;38.37;;
43168;Laerm;28773;48.804;9.024;2023-03-14T08:43:57;34.60;33.04;36.77;;
43168;Laerm;28773;48.804;9.024;2023-03-14T08:46:22;34.64;33.04;40.12;;
43168;Laerm;28773;48.804;9.024;2023-03-14T08:48:48;34.57;33.19;37.08;;
43168;Laerm;28773;48.804;9.024;2023-03-14T08:51:13;34.58;33.01;39.03;;
43168;Laerm;28773;48.804;9.024;2023-03-14T08:53:42;34.47;32.67;38.68;;
43168;Laerm;28773;48.804;9.024;2023-03-14T08:56:07;34.51;32.97;38.07;;
43168;Laerm;28773;48.804;9.024;2023-03-14T08:58:34;34.88;33.32;40.11;;
43168;Laerm;28773;48.804;9.024;2023-03-14T09:01:01;34.90;33.11;41.14;;
43168;Laerm;28773;48.804;9.024;2023-03-14T09:03:26;34.88;32.95;40.00;;
43168;Laerm;28773;48.804;9.024;2023-03-14T09:05:53;35.02;33.32;37.58;;
43168;Laerm;28773;48.804;9.024;2023-03-14T09:08:18;35.26;33.73;38.07;;
43168;Laerm;28773;48.804;9.024;2023-03-14T09:10:43;35.53;33.74;39.22;;
43168;Laerm;28773;48.804;9.024;2023-03-14T09:13:09;36.52;34.01;41.76;;
43168;Laerm;28773;48.804;9.024;2023-03-14T09:15:34;37.69;34.88;42.11;;
43168;Laerm;28773;48.804;9.024;2023-03-14T09:17:59;38.79;35.61;44.03;;
43168;Laerm;28773;48.804;9.024;2023-03-14T09:20:24;38.72;35.45;44.35;;
43168;Laerm;28773;48.804;9.024;2023-03-14T09:22:49;39.74;35.84;44.34;;
43168;Laerm;28773;48.804;9.024;2023-03-14T09:25:15;40.36;36.65;45.00;;
43168;Laerm;28773;48.804;9.024;2023-03-14T09:27:40;41.01;36.83;47.55;;
43168;Laerm;28773;48.804;9.024;2023-03-14T09:30:05;41.65;36.99;48.62;;
43168;Laerm;28773;48.804;9.024;2023-03-14T09:32:31;42.89;38.18;49.64;;
43168;Laerm;28773;48.804;9.024;2023-03-14T09:34:59;43.08;38.22;49.70;;
43168;Laerm;28773;48.804;9.024;2023-03-14T09:37:24;41.92;36.99;49.26;;
43168;Laerm;28773;48.804;9.024;2023-03-14T09:39:49;42.33;37.50;49.58;;
43168;Laerm;28773;48.804;9.024;2023-03-14T09:42:15;41.61;36.74;48.90;;
43168;Laerm;28773;48.804;9.024;2023-03-14T09:44:51;40.79;36.17;47.53;;
43168;Laerm;28773;48.804;9.024;2023-03-14T09:47:18;39.60;35.55;46.31;;
43168;Laerm;28773;48.804;9.024;2023-03-14T09:49:45;39.50;35.27;46.51;;
43168;Laerm;28773;48.804;9.024;2023-03-14T09:52:11;40.41;36.21;47.10;;
43168;Laerm;28773;48.804;9.024;2023-03-14T09:54:43;40.06;36.14;47.27;;
43168;Laerm;28773;48.804;9.024;2023-03-14T09:57:16;40.26;35.80;47.21;;
43168;Laerm;28773;48.804;9.024;2023-03-14T09:59:46;38.18;34.60;45.44;;
43168;Laerm;28773;48.804;9.024;2023-03-14T10:02:17;38.06;34.79;44.40;;
43168;Laerm;28773;48.804;9.024;2023-03-14T10:04:43;38.99;35.29;45.17;;
43168;Laerm;28773;48.804;9.024;2023-03-14T10:07:11;39.20;35.27;45.50;;
43168;Laerm;28773;48.804;9.024;2023-03-14T10:09:38;40.61;36.35;47.28;;
43168;Laerm;28773;48.804;9.024;2023-03-14T10:12:03;40.04;36.05;46.44;;
43168;Laerm;28773;48.804;9.024;2023-03-14T10:14:32;40.74;36.14;47.48;;
43168;Laerm;28773;48.804;9.024;2023-03-14T10:17:04;41.43;36.94;48.45;;
43168;Laerm;28773;48.804;9.024;2023-03-14T10:19:29;40.46;35.78;47.83;;
43168;Laerm;28773;48.804;9.024;2023-03-14T10:21:55;38.89;35.05;45.86;;
43168;Laerm;28773;48.804;9.024;2023-03-14T10:26:53;37.09;34.69;42.74;;
43168;Laerm;28773;48.804;9.024;2023-03-14T10:29:19;35.51;33.53;40.58;;
43168;Laerm;28773;48.804;9.024;2023-03-14T10:31:47;35.79;33.94;40.04;;
43168;Laerm;28773;48.804;9.024;2023-03-14T10:34:20;36.31;34.36;40.65;;
43168;Laerm;28773;48.804;9.024;2023-03-14T10:36:46;35.56;33.54;40.37;;
43168;Laerm;28773;48.804;9.024;2023-03-14T10:41:52;35.75;33.84;39.40;;
43168;Laerm;28773;48.804;9.024;2023-03-14T10:44:19;35.56;33.56;39.16;;
43168;Laerm;28773;48.804;9.024;2023-03-14T10:46:46;34.87;33.02;38.99;;
43168;Laerm;28773;48.804;9.024;2023-03-14T10:49:28;34.99;33.35;37.75;;
43168;Laerm;28773;48.804;9.024;2023-03-14T10:51:54;35.29;33.59;38.04;;
43168;Laerm;28773;48.804;9.024;2023-03-14T10:54:20;35.74;33.91;39.75;;
43168;Laerm;28773;48.804;9.024;2023-03-14T10:56:46;36.01;34.11;39.58;;
43168;Laerm;28773;48.804;9.024;2023-03-14T10:59:20;36.92;34.56;40.61;;
43168;Laerm;28773;48.804;9.024;2023-03-14T11:01:48;37.88;34.84;48.26;;
43168;Laerm;28773;48.804;9.024;2023-03-14T11:09:34;37.72;34.71;44.11;;
43168;Laerm;28773;48.804;9.024;2023-03-14T11:12:03;39.23;35.89;44.97;;
43168;Laerm;28773;48.804;9.024;2023-03-14T11:14:38;40.97;36.74;48.02;;
43168;Laerm;28773;48.804;9.024;2023-03-14T11:17:15;42.58;38.27;49.04;;
43168;Laerm;28773;48.804;9.024;2023-03-14T11:19:49;44.27;39.90;49.09;;
43168;Laerm;28773;48.804;9.024;2023-03-14T11:22:21;45.10;40.85;50.45;;
43168;Laerm;28773;48.804;9.024;2023-03-14T11:24:51;47.36;41.62;53.09;;
43168;Laerm;28773;48.804;9.024;2023-03-14T11:27:22;47.82;42.05;54.30;;
43168;Laerm;28773;48.804;9.024;2023-03-14T11:32:15;49.35;43.06;56.95;;
43168;Laerm;28773;48.804;9.024;2023-03-14T11:35:02;49.11;41.81;56.81;;
43168;Laerm;28773;48.804;9.024;2023-03-14T11:37:40;48.46;41.91;55.85;;
43168;Laerm;28773;48.804;9.024;2023-03-14T11:42:38;46.17;39.77;53.73;;
43168;Laerm;28773;48.804;9.024;2023-03-14T11:45:13;46.85;40.69;54.27;;
43168;Laerm;28773;48.804;9.024;2023-03-14T11:47:39;46.77;40.53;54.11;;
43168;Laerm;28773;48.804;9.024;2023-03-14T11:50:25;47.45;39.96;54.75;;
43168;Laerm;28773;48.804;9.024;2023-03-14T11:55:19;48.94;42.41;56.63;;
43168;Laerm;28773;48.804;9.024;2023-03-14T11:57:46;50.43;42.74;58.50;;
43168;Laerm;28773;48.804;9.024;2023-03-14T12:02:42;51.41;42.42;59.28;;
43168;Laerm;28773;48.804;9.024;2023-03-14T12:05:23;50.61;42.69;58.33;;
43168;Laerm;28773;48.804;9.024;2023-03-14T12:08:10;49.78;42.66;57.76;;
43168;Laerm;28773;48.804;9.024;2023-03-14T12:10:44;48.91;41.65;55.89;;
43168;Laerm;28773;48.804;9.024;2023-03-14T12:13:11;50.94;47.07;56.38;;
43168;Laerm;28773;48.804;9.024;2023-03-14T12:15:39;51.96;47.50;57.87;;
43168;Laerm;28773;48.804;9.024;2023-03-14T12:18:11;52.24;46.51;58.20;;
43168;Laerm;28773;48.804;9.024;2023-03-14T12:20:50;50.92;43.88;56.42;;
43168;Laerm;28773;48.804;9.024;2023-03-14T12:23:15;45.78;39.15;53.88;;
43168;Laerm;28773;48.804;9.024;2023-03-14T12:25:41;42.20;35.45;51.31;;
43168;Laerm;28773;48.804;9.024;2023-03-14T12:28:22;39.99;35.13;46.62;;
43168;Laerm;28773;48.804;9.024;2023-03-14T12:30:55;39.14;34.84;45.51;;
43168;Laerm;28773;48.804;9.024;2023-03-14T12:33:21;38.38;34.72;47.43;;
43168;Laerm;28773;48.804;9.024;2023-03-14T12:35:52;36.77;34.09;42.82;;
43168;Laerm;28773;48.804;9.024;2023-03-14T12:38:23;37.22;33.88;44.16;;
43168;Laerm;28773;48.804;9.024;2023-03-14T12:40:58;37.17;34.15;46.17;;
43168;Laerm;28773;48.804;9.024;2023-03-14T12:43:24;38.15;34.54;44.41;;
43168;Laerm;28773;48.804;9.024;2023-03-14T12:48:34;37.64;34.42;43.78;;
43168;Laerm;28773;48.804;9.024;2023-03-14T12:51:03;38.31;35.01;44.22;;
43168;Laerm;28773;48.804;9.024;2023-03-14T13:01:25;36.32;33.82;41.36;;
43168;Laerm;28773;48.804;9.024;2023-03-14T13:03:53;36.46;33.88;42.22;;
43168;Laerm;28773;48.804;9.024;2023-03-14T13:11:48;35.43;33.45;40.52;;
43168;Laerm;28773;48.804;9.024;2023-03-14T13:14:13;35.09;33.20;38.30;;
43168;Laerm;28773;48.804;9.024;2023-03-14T13:16:38;35.44;33.52;39.61;;
43168;Laerm;28773;48.804;9.024;2023-03-14T13:19:04;34.83;33.14;39.54;;
43168;Laerm;28773;48.804;9.024;2023-03-14T13:21:36;34.71;32.97;41.38;;
43168;Laerm;28773;48.804;9.024;2023-03-14T13:24:03;34.72;33.04;39.23;;
43168;Laerm;28773;48.804;9.024;2023-03-14T13:26:41;34.78;33.17;40.61;;
43168;Laerm;28773;48.804;9.024;2023-03-14T13:29:08;34.59;32.74;40.76;;
43168;Laerm;28773;48.804;9.024;2023-03-14T13:31:33;34.21;32.48;40.10;;
43168;Laerm;28773;48.804;9.024;2023-03-14T13:34:06;34.23;32.42;42.79;;
43168;Laerm;28773;48.804;9.024;2023-03-14T13:36:31;34.15;32.33;37.96;;
43168;Laerm;28773;48.804;9.024;2023-03-14T13:38:58;33.61;31.69;38.27;;
43168;Laerm;28773;48.804;9.024;2023-03-14T13:41:24;33.63;31.79;41.16;;
43168;Laerm;28773;48.804;9.024;2023-03-14T13:43:50;33.28;31.37;37.69;;
43168;Laerm;28773;48.804;9.024;2023-03-14T13:46:22;33.89;31.69;41.47;;
43168;Laerm;28773;48.804;9.024;2023-03-14T13:48:49;33.40;31.43;42.37;;
43168;Laerm;28773;48.804;9.024;2023-03-14T13:51:16;33.71;31.72;37.78;;
43168;Laerm;28773;48.804;9.024;2023-03-14T13:53:52;33.61;31.22;41.48;;
43168;Laerm;28773;48.804;9.024;2023-03-14T13:56:19;33.33;31.11;40.43;;
43168;Laerm;28773;48.804;9.024;2023-03-14T13:58:44;32.92;31.24;42.73;;
43168;Laerm;28773;48.804;9.024;2023-03-14T14:03:36;33.23;31.04;42.86;;
43168;Laerm;28773;48.804;9.024;2023-03-14T14:06:02;37.37;31.01;55.37;;
43168;Laerm;28773;48.804;9.024;2023-03-14T14:08:28;33.37;30.72;45.46;;
43168;Laerm;28773;48.804;9.024;2023-03-14T14:10:55;33.62;30.79;50.44;;
43168;Laerm;28773;48.804;9.024;2023-03-14T14:13:22;33.24;30.96;40.55;;
43168;Laerm;28773;48.804;9.024;2023-03-14T14:15:50;32.92;31.04;37.62;;
43168;Laerm;28773;48.804;9.024;2023-03-14T14:18:17;34.26;31.14;41.85;;
43168;Laerm;28773;48.804;9.024;2023-03-14T14:20:44;32.72;30.72;38.20;;
43168;Laerm;28773;48.804;9.024;2023-03-14T14:23:10;33.36;30.74;44.04;;
43168;Laerm;28773;48.804;9.024;2023-03-14T14:25:36;34.30;30.82;47.42;;
43168;Laerm;28773;48.804;9.024;2023-03-14T14:28:22;33.33;30.79;39.65;;
43168;Laerm;28773;48.804;9.024;2023-03-14T14:30:58;33.38;30.70;39.86;;